sensor_id;sensor_type;location;lat;lon;timestamp;P1;durP1;ratioP1;P2;durP2;ratioP2
17330;SDS011;8783;52.448;4.638;2023-07-30T00:01:32;11.30;;;3.25;;
17330;SDS011;8783;52.448;4.638;2023-07-30T00:03:58;16.20;;;3.67;;
17330;SDS011;8783;52.448;4.638;2023-07-30T00:06:24;19.33;;;4.03;;
17330;SDS011;8783;52.448;4.638;2023-07-30T00:08:50;9.65;;;2.95;;
17330;SDS011;8783;52.448;4.638;2023-07-30T00:11:15;14.18;;;3.58;;
17330;SDS011;8783;52.448;4.638;2023-07-30T00:13:42;15.82;;;4.05;;
17330;SDS011;8783;52.448;4.638;2023-07-30T00:16:07;16.98;;;4.25;;
17330;SDS011;8783;52.448;4.638;2023-07-30T00:18:33;13.73;;;3.53;;
17330;SDS011;8783;52.448;4.638;2023-07-30T00:20:59;16.83;;;3.97;;
17330;SDS011;8783;52.448;4.638;2023-07-30T00:23:24;12.43;;;3.28;;
17330;SDS011;8783;52.448;4.638;2023-07-30T00:25:50;14.02;;;3.28;;
17330;SDS011;8783;52.448;4.638;2023-07-30T00:28:16;12.88;;;3.33;;
17330;SDS011;8783;52.448;4.638;2023-07-30T00:30:41;13.15;;;3.45;;
17330;SDS011;8783;52.448;4.638;2023-07-30T00:33:07;16.60;;;4.00;;
17330;SDS011;8783;52.448;4.638;2023-07-30T00:35:33;12.68;;;3.58;;
17330;SDS011;8783;52.448;4.638;2023-07-30T00:37:58;13.60;;;3.55;;
17330;SDS011;8783;52.448;4.638;2023-07-30T00:40:24;11.82;;;2.97;;
17330;SDS011;8783;52.448;4.638;2023-07-30T00:42:49;11.95;;;3.42;;
17330;SDS011;8783;52.448;4.638;2023-07-30T00:45:15;11.25;;;3.55;;
17330;SDS011;8783;52.448;4.638;2023-07-30T00:47:41;15.45;;;3.50;;
17330;SDS011;8783;52.448;4.638;2023-07-30T00:50:07;18.35;;;3.53;;
17330;SDS011;8783;52.448;4.638;2023-07-30T00:52:33;18.52;;;3.53;;
17330;SDS011;8783;52.448;4.638;2023-07-30T00:55:01;13.85;;;3.50;;
17330;SDS011;8783;52.448;4.638;2023-07-30T00:57:28;13.00;;;3.58;;
17330;SDS011;8783;52.448;4.638;2023-07-30T00:59:54;10.13;;;2.97;;
17330;SDS011;8783;52.448;4.638;2023-07-30T01:02:21;13.25;;;3.47;;
17330;SDS011;8783;52.448;4.638;2023-07-30T01:04:47;9.50;;;2.50;;
17330;SDS011;8783;52.448;4.638;2023-07-30T01:07:13;13.38;;;3.50;;
17330;SDS011;8783;52.448;4.638;2023-07-30T01:09:38;12.35;;;2.83;;
17330;SDS011;8783;52.448;4.638;2023-07-30T01:12:04;19.23;;;4.45;;
17330;SDS011;8783;52.448;4.638;2023-07-30T01:14:31;10.95;;;3.00;;
17330;SDS011;8783;52.448;4.638;2023-07-30T01:16:58;13.70;;;3.35;;
17330;SDS011;8783;52.448;4.638;2023-07-30T01:19:24;13.20;;;3.35;;
17330;SDS011;8783;52.448;4.638;2023-07-30T01:21:50;15.32;;;3.15;;
17330;SDS011;8783;52.448;4.638;2023-07-30T01:24:15;13.63;;;3.33;;
17330;SDS011;8783;52.448;4.638;2023-07-30T01:27:01;13.23;;;3.30;;
17330;SDS011;8783;52.448;4.638;2023-07-30T01:29:33;11.43;;;3.28;;
17330;SDS011;8783;52.448;4.638;2023-07-30T01:32:04;11.57;;;3.00;;
17330;SDS011;8783;52.448;4.638;2023-07-30T01:34:32;11.38;;;3.28;;
17330;SDS011;8783;52.448;4.638;2023-07-30T01:37:00;11.48;;;3.17;;
17330;SDS011;8783;52.448;4.638;2023-07-30T01:39:27;15.57;;;2.88;;
17330;SDS011;8783;52.448;4.638;2023-07-30T01:41:53;10.68;;;2.80;;
17330;SDS011;8783;52.448;4.638;2023-07-30T01:44:20;11.85;;;3.25;;
17330;SDS011;8783;52.448;4.638;2023-07-30T01:46:46;11.65;;;2.92;;
17330;SDS011;8783;52.448;4.638;2023-07-30T01:49:11;13.00;;;3.13;;
17330;SDS011;8783;52.448;4.638;2023-07-30T01:51:37;11.20;;;2.97;;
17330;SDS011;8783;52.448;4.638;2023-07-30T01:54:03;11.88;;;3.30;;
17330;SDS011;8783;52.448;4.638;2023-07-30T01:56:28;10.60;;;2.60;;
17330;SDS011;8783;52.448;4.638;2023-07-30T01:58:54;11.07;;;3.20;;
17330;SDS011;8783;52.448;4.638;2023-07-30T02:01:20;11.77;;;2.78;;
17330;SDS011;8783;52.448;4.638;2023-07-30T02:03:46;12.48;;;3.45;;
17330;SDS011;8783;52.448;4.638;2023-07-30T02:06:11;10.00;;;2.90;;
17330;SDS011;8783;52.448;4.638;2023-07-30T02:08:37;9.88;;;2.60;;
17330;SDS011;8783;52.448;4.638;2023-07-30T02:11:03;10.48;;;2.92;;
17330;SDS011;8783;52.448;4.638;2023-07-30T02:13:29;9.18;;;2.92;;
17330;SDS011;8783;52.448;4.638;2023-07-30T02:15:54;9.70;;;2.55;;
17330;SDS011;8783;52.448;4.638;2023-07-30T02:18:20;11.10;;;2.63;;
17330;SDS011;8783;52.448;4.638;2023-07-30T02:20:46;5.95;;;2.22;;
17330;SDS011;8783;52.448;4.638;2023-07-30T02:23:13;9.30;;;2.40;;
17330;SDS011;8783;52.448;4.638;2023-07-30T02:25:41;9.98;;;2.47;;
17330;SDS011;8783;52.448;4.638;2023-07-30T02:28:06;8.30;;;2.72;;
17330;SDS011;8783;52.448;4.638;2023-07-30T02:30:33;7.30;;;2.17;;
17330;SDS011;8783;52.448;4.638;2023-07-30T02:32:59;9.15;;;2.50;;
17330;SDS011;8783;52.448;4.638;2023-07-30T02:35:24;7.82;;;2.17;;
17330;SDS011;8783;52.448;4.638;2023-07-30T02:37:50;7.38;;;2.03;;
17330;SDS011;8783;52.448;4.638;2023-07-30T02:40:15;7.82;;;1.92;;
17330;SDS011;8783;52.448;4.638;2023-07-30T02:42:41;3.75;;;1.48;;
17330;SDS011;8783;52.448;4.638;2023-07-30T02:45:07;7.10;;;1.98;;
17330;SDS011;8783;52.448;4.638;2023-07-30T02:47:33;7.68;;;2.17;;
17330;SDS011;8783;52.448;4.638;2023-07-30T02:49:59;7.88;;;2.10;;
17330;SDS011;8783;52.448;4.638;2023-07-30T02:52:24;8.13;;;2.20;;
17330;SDS011;8783;52.448;4.638;2023-07-30T02:54:50;7.82;;;2.28;;
17330;SDS011;8783;52.448;4.638;2023-07-30T02:57:15;7.05;;;2.15;;
17330;SDS011;8783;52.448;4.638;2023-07-30T02:59:41;6.15;;;1.90;;
17330;SDS011;8783;52.448;4.638;2023-07-30T03:02:07;7.63;;;1.70;;
17330;SDS011;8783;52.448;4.638;2023-07-30T03:04:32;4.18;;;1.70;;
17330;SDS011;8783;52.448;4.638;2023-07-30T03:06:58;6.63;;;1.80;;
17330;SDS011;8783;52.448;4.638;2023-07-30T03:09:24;6.50;;;2.40;;
17330;SDS011;8783;52.448;4.638;2023-07-30T03:11:50;8.27;;;1.98;;
17330;SDS011;8783;52.448;4.638;2023-07-30T03:14:16;8.98;;;2.25;;
17330;SDS011;8783;52.448;4.638;2023-07-30T03:16:45;6.25;;;1.90;;
17330;SDS011;8783;52.448;4.638;2023-07-30T03:19:14;7.75;;;1.88;;
17330;SDS011;8783;52.448;4.638;2023-07-30T03:21:40;7.68;;;1.92;;
17330;SDS011;8783;52.448;4.638;2023-07-30T03:24:06;6.25;;;1.80;;
17330;SDS011;8783;52.448;4.638;2023-07-30T03:26:32;7.15;;;1.80;;
17330;SDS011;8783;52.448;4.638;2023-07-30T03:28:57;7.38;;;2.05;;
17330;SDS011;8783;52.448;4.638;2023-07-30T03:31:23;9.15;;;1.95;;
17330;SDS011;8783;52.448;4.638;2023-07-30T03:33:48;6.68;;;1.67;;
17330;SDS011;8783;52.448;4.638;2023-07-30T03:36:14;6.22;;;1.88;;
17330;SDS011;8783;52.448;4.638;2023-07-30T03:38:40;7.88;;;1.88;;
17330;SDS011;8783;52.448;4.638;2023-07-30T03:41:06;9.38;;;1.88;;
17330;SDS011;8783;52.448;4.638;2023-07-30T03:43:33;4.18;;;1.80;;
17330;SDS011;8783;52.448;4.638;2023-07-30T03:45:59;8.65;;;2.03;;
17330;SDS011;8783;52.448;4.638;2023-07-30T03:48:25;7.22;;;1.77;;
17330;SDS011;8783;52.448;4.638;2023-07-30T03:50:51;11.05;;;2.38;;
17330;SDS011;8783;52.448;4.638;2023-07-30T03:53:17;10.90;;;2.20;;
17330;SDS011;8783;52.448;4.638;2023-07-30T03:55:43;6.82;;;1.65;;
17330;SDS011;8783;52.448;4.638;2023-07-30T03:58:09;8.82;;;1.85;;
17330;SDS011;8783;52.448;4.638;2023-07-30T04:00:34;8.32;;;1.73;;
17330;SDS011;8783;52.448;4.638;2023-07-30T04:03:00;4.63;;;1.45;;
17330;SDS011;8783;52.448;4.638;2023-07-30T04:05:25;5.93;;;1.75;;
17330;SDS011;8783;52.448;4.638;2023-07-30T04:07:51;6.50;;;1.77;;
17330;SDS011;8783;52.448;4.638;2023-07-30T04:10:17;8.00;;;2.00;;
17330;SDS011;8783;52.448;4.638;2023-07-30T04:12:42;6.50;;;1.60;;
17330;SDS011;8783;52.448;4.638;2023-07-30T04:15:08;9.50;;;2.03;;
17330;SDS011;8783;52.448;4.638;2023-07-30T04:17:35;7.28;;;1.90;;
17330;SDS011;8783;52.448;4.638;2023-07-30T04:20:02;10.75;;;2.15;;
17330;SDS011;8783;52.448;4.638;2023-07-30T04:22:29;8.10;;;2.22;;
17330;SDS011;8783;52.448;4.638;2023-07-30T04:24:55;9.45;;;2.30;;
17330;SDS011;8783;52.448;4.638;2023-07-30T04:27:20;8.90;;;1.90;;
17330;SDS011;8783;52.448;4.638;2023-07-30T04:29:46;8.82;;;2.08;;
17330;SDS011;8783;52.448;4.638;2023-07-30T04:32:12;6.20;;;1.80;;
17330;SDS011;8783;52.448;4.638;2023-07-30T04:34:38;10.13;;;2.20;;
17330;SDS011;8783;52.448;4.638;2023-07-30T04:37:04;8.48;;;1.73;;
17330;SDS011;8783;52.448;4.638;2023-07-30T04:39:31;10.65;;;2.00;;
17330;SDS011;8783;52.448;4.638;2023-07-30T04:41:58;8.50;;;2.03;;
17330;SDS011;8783;52.448;4.638;2023-07-30T04:44:23;7.80;;;1.77;;
17330;SDS011;8783;52.448;4.638;2023-07-30T04:46:49;8.35;;;1.80;;
17330;SDS011;8783;52.448;4.638;2023-07-30T04:49:15;6.75;;;1.98;;
17330;SDS011;8783;52.448;4.638;2023-07-30T04:51:40;8.57;;;2.10;;
17330;SDS011;8783;52.448;4.638;2023-07-30T04:54:06;5.70;;;1.67;;
17330;SDS011;8783;52.448;4.638;2023-07-30T04:56:32;7.57;;;1.92;;
17330;SDS011;8783;52.448;4.638;2023-07-30T04:58:58;7.65;;;2.00;;
17330;SDS011;8783;52.448;4.638;2023-07-30T05:01:24;8.43;;;2.00;;
17330;SDS011;8783;52.448;4.638;2023-07-30T05:03:50;7.38;;;1.77;;
17330;SDS011;8783;52.448;4.638;2023-07-30T05:06:15;9.85;;;1.98;;
17330;SDS011;8783;52.448;4.638;2023-07-30T05:08:41;7.72;;;2.22;;
17330;SDS011;8783;52.448;4.638;2023-07-30T05:11:06;10.20;;;2.10;;
17330;SDS011;8783;52.448;4.638;2023-07-30T05:13:32;7.40;;;1.83;;
17330;SDS011;8783;52.448;4.638;2023-07-30T05:15:58;9.68;;;2.03;;
17330;SDS011;8783;52.448;4.638;2023-07-30T05:18:24;5.80;;;1.70;;
17330;SDS011;8783;52.448;4.638;2023-07-30T05:20:49;7.10;;;1.60;;
17330;SDS011;8783;52.448;4.638;2023-07-30T05:23:15;8.90;;;1.95;;
17330;SDS011;8783;52.448;4.638;2023-07-30T05:25:40;8.85;;;1.92;;
17330;SDS011;8783;52.448;4.638;2023-07-30T05:28:06;7.97;;;1.90;;
17330;SDS011;8783;52.448;4.638;2023-07-30T05:30:32;10.48;;;2.03;;
17330;SDS011;8783;52.448;4.638;2023-07-30T05:32:57;10.60;;;2.15;;
17330;SDS011;8783;52.448;4.638;2023-07-30T05:35:23;6.18;;;1.95;;
17330;SDS011;8783;52.448;4.638;2023-07-30T05:37:49;10.73;;;2.20;;
17330;SDS011;8783;52.448;4.638;2023-07-30T05:40:14;10.60;;;2.05;;
17330;SDS011;8783;52.448;4.638;2023-07-30T05:42:40;7.40;;;2.03;;
17330;SDS011;8783;52.448;4.638;2023-07-30T05:45:06;7.82;;;2.00;;
17330;SDS011;8783;52.448;4.638;2023-07-30T05:47:33;10.02;;;2.03;;
17330;SDS011;8783;52.448;4.638;2023-07-30T05:49:58;7.32;;;1.92;;
17330;SDS011;8783;52.448;4.638;2023-07-30T05:52:24;10.55;;;2.33;;
17330;SDS011;8783;52.448;4.638;2023-07-30T05:54:49;8.85;;;2.03;;
17330;SDS011;8783;52.448;4.638;2023-07-30T05:57:15;7.97;;;2.30;;
17330;SDS011;8783;52.448;4.638;2023-07-30T05:59:41;10.32;;;2.20;;
17330;SDS011;8783;52.448;4.638;2023-07-30T06:02:06;8.30;;;1.90;;
17330;SDS011;8783;52.448;4.638;2023-07-30T06:04:32;8.73;;;2.22;;
17330;SDS011;8783;52.448;4.638;2023-07-30T06:06:59;7.60;;;2.28;;
17330;SDS011;8783;52.448;4.638;2023-07-30T06:09:28;11.63;;;1.83;;
17330;SDS011;8783;52.448;4.638;2023-07-30T06:11:54;8.68;;;2.45;;
17330;SDS011;8783;52.448;4.638;2023-07-30T06:14:21;11.70;;;2.10;;
17330;SDS011;8783;52.448;4.638;2023-07-30T06:16:47;6.47;;;1.80;;
17330;SDS011;8783;52.448;4.638;2023-07-30T06:19:13;11.65;;;2.22;;
17330;SDS011;8783;52.448;4.638;2023-07-30T06:21:38;8.50;;;2.22;;
17330;SDS011;8783;52.448;4.638;2023-07-30T06:24:04;12.27;;;2.35;;
17330;SDS011;8783;52.448;4.638;2023-07-30T06:26:30;7.03;;;2.10;;
17330;SDS011;8783;52.448;4.638;2023-07-30T06:28:55;8.75;;;2.42;;
17330;SDS011;8783;52.448;4.638;2023-07-30T06:31:21;10.73;;;2.17;;
17330;SDS011;8783;52.448;4.638;2023-07-30T06:33:46;10.90;;;2.00;;
17330;SDS011;8783;52.448;4.638;2023-07-30T06:36:12;10.48;;;2.42;;
17330;SDS011;8783;52.448;4.638;2023-07-30T06:38:38;10.13;;;2.13;;
17330;SDS011;8783;52.448;4.638;2023-07-30T06:41:03;14.52;;;2.50;;
17330;SDS011;8783;52.448;4.638;2023-07-30T06:43:29;10.15;;;2.15;;
17330;SDS011;8783;52.448;4.638;2023-07-30T06:45:55;8.95;;;1.92;;
17330;SDS011;8783;52.448;4.638;2023-07-30T06:48:21;7.30;;;1.90;;
17330;SDS011;8783;52.448;4.638;2023-07-30T06:50:46;8.88;;;1.80;;
17330;SDS011;8783;52.448;4.638;2023-07-30T06:53:12;8.98;;;2.00;;
17330;SDS011;8783;52.448;4.638;2023-07-30T06:55:37;7.40;;;1.70;;
17330;SDS011;8783;52.448;4.638;2023-07-30T06:58:03;11.38;;;2.70;;
17330;SDS011;8783;52.448;4.638;2023-07-30T07:00:29;9.45;;;2.50;;
17330;SDS011;8783;52.448;4.638;2023-07-30T07:02:54;7.95;;;2.00;;
17330;SDS011;8783;52.448;4.638;2023-07-30T07:05:20;11.18;;;2.90;;
17330;SDS011;8783;52.448;4.638;2023-07-30T07:07:46;9.70;;;2.15;;
17330;SDS011;8783;52.448;4.638;2023-07-30T07:10:12;10.25;;;2.03;;
17330;SDS011;8783;52.448;4.638;2023-07-30T07:12:38;8.23;;;2.13;;
17330;SDS011;8783;52.448;4.638;2023-07-30T07:15:04;9.57;;;2.60;;
17330;SDS011;8783;52.448;4.638;2023-07-30T07:17:30;8.85;;;2.10;;
17330;SDS011;8783;52.448;4.638;2023-07-30T07:19:57;9.15;;;2.15;;
17330;SDS011;8783;52.448;4.638;2023-07-30T07:22:23;15.13;;;2.58;;
17330;SDS011;8783;52.448;4.638;2023-07-30T07:24:49;13.75;;;2.60;;
17330;SDS011;8783;52.448;4.638;2023-07-30T07:27:17;13.90;;;2.78;;
17330;SDS011;8783;52.448;4.638;2023-07-30T07:29:43;12.13;;;2.30;;
17330;SDS011;8783;52.448;4.638;2023-07-30T07:32:09;11.45;;;2.33;;
17330;SDS011;8783;52.448;4.638;2023-07-30T07:34:35;11.75;;;2.05;;
17330;SDS011;8783;52.448;4.638;2023-07-30T07:37:01;9.30;;;2.17;;
17330;SDS011;8783;52.448;4.638;2023-07-30T07:39:27;12.55;;;2.50;;
17330;SDS011;8783;52.448;4.638;2023-07-30T07:41:53;6.82;;;2.03;;
17330;SDS011;8783;52.448;4.638;2023-07-30T07:44:20;12.60;;;2.63;;
17330;SDS011;8783;52.448;4.638;2023-07-30T07:46:46;7.97;;;1.77;;
17330;SDS011;8783;52.448;4.638;2023-07-30T07:49:12;7.60;;;1.75;;
17330;SDS011;8783;52.448;4.638;2023-07-30T07:51:38;13.73;;;2.45;;
17330;SDS011;8783;52.448;4.638;2023-07-30T07:54:03;16.65;;;3.35;;
17330;SDS011;8783;52.448;4.638;2023-07-30T07:56:30;21.52;;;3.78;;
17330;SDS011;8783;52.448;4.638;2023-07-30T07:58:56;18.55;;;4.07;;
17330;SDS011;8783;52.448;4.638;2023-07-30T08:01:22;22.55;;;4.57;;
17330;SDS011;8783;52.448;4.638;2023-07-30T08:03:48;18.63;;;3.53;;
17330;SDS011;8783;52.448;4.638;2023-07-30T08:06:14;14.73;;;2.78;;
17330;SDS011;8783;52.448;4.638;2023-07-30T08:08:39;11.43;;;2.25;;
17330;SDS011;8783;52.448;4.638;2023-07-30T08:11:05;9.15;;;2.83;;
17330;SDS011;8783;52.448;4.638;2023-07-30T08:13:32;11.48;;;2.55;;
17330;SDS011;8783;52.448;4.638;2023-07-30T08:15:58;11.52;;;2.60;;
17330;SDS011;8783;52.448;4.638;2023-07-30T08:18:27;12.13;;;2.10;;
17330;SDS011;8783;52.448;4.638;2023-07-30T08:20:53;10.40;;;2.05;;
17330;SDS011;8783;52.448;4.638;2023-07-30T08:23:18;13.40;;;2.40;;
17330;SDS011;8783;52.448;4.638;2023-07-30T08:25:44;9.98;;;2.30;;
17330;SDS011;8783;52.448;4.638;2023-07-30T08:28:10;11.07;;;2.20;;
17330;SDS011;8783;52.448;4.638;2023-07-30T08:30:36;11.38;;;2.15;;
17330;SDS011;8783;52.448;4.638;2023-07-30T08:33:01;12.80;;;2.45;;
17330;SDS011;8783;52.448;4.638;2023-07-30T08:35:27;14.68;;;2.17;;
17330;SDS011;8783;52.448;4.638;2023-07-30T08:37:53;11.30;;;2.28;;
17330;SDS011;8783;52.448;4.638;2023-07-30T08:40:22;11.43;;;2.47;;
17330;SDS011;8783;52.448;4.638;2023-07-30T08:42:50;14.95;;;2.40;;
17330;SDS011;8783;52.448;4.638;2023-07-30T08:45:18;14.85;;;2.78;;
17330;SDS011;8783;52.448;4.638;2023-07-30T08:47:47;10.20;;;2.17;;
17330;SDS011;8783;52.448;4.638;2023-07-30T08:50:13;8.20;;;1.90;;
17330;SDS011;8783;52.448;4.638;2023-07-30T08:52:39;11.13;;;2.05;;
17330;SDS011;8783;52.448;4.638;2023-07-30T08:55:06;16.17;;;2.60;;
17330;SDS011;8783;52.448;4.638;2023-07-30T08:57:35;20.70;;;3.58;;
17330;SDS011;8783;52.448;4.638;2023-07-30T09:00:03;15.05;;;2.88;;
17330;SDS011;8783;52.448;4.638;2023-07-30T09:02:41;13.65;;;2.58;;
17330;SDS011;8783;52.448;4.638;2023-07-30T09:05:12;19.58;;;3.08;;
17330;SDS011;8783;52.448;4.638;2023-07-30T09:07:43;14.20;;;3.03;;
17330;SDS011;8783;52.448;4.638;2023-07-30T09:10:09;16.55;;;3.13;;
17330;SDS011;8783;52.448;4.638;2023-07-30T09:12:35;15.82;;;2.67;;
17330;SDS011;8783;52.448;4.638;2023-07-30T09:15:02;10.85;;;2.55;;
17330;SDS011;8783;52.448;4.638;2023-07-30T09:17:30;14.30;;;2.40;;
17330;SDS011;8783;52.448;4.638;2023-07-30T09:19:55;12.10;;;2.50;;
17330;SDS011;8783;52.448;4.638;2023-07-30T09:22:28;15.20;;;3.03;;
17330;SDS011;8783;52.448;4.638;2023-07-30T09:25:01;10.02;;;2.20;;
17330;SDS011;8783;52.448;4.638;2023-07-30T09:27:28;8.90;;;1.92;;
17330;SDS011;8783;52.448;4.638;2023-07-30T09:29:56;8.27;;;1.90;;
17330;SDS011;8783;52.448;4.638;2023-07-30T09:32:26;7.05;;;1.77;;
17330;SDS011;8783;52.448;4.638;2023-07-30T09:35:07;10.48;;;2.10;;
17330;SDS011;8783;52.448;4.638;2023-07-30T09:37:40;8.13;;;1.80;;
17330;SDS011;8783;52.448;4.638;2023-07-30T09:40:10;10.43;;;1.92;;
17330;SDS011;8783;52.448;4.638;2023-07-30T09:42:38;9.85;;;2.20;;
17330;SDS011;8783;52.448;4.638;2023-07-30T09:45:07;10.00;;;2.20;;
17330;SDS011;8783;52.448;4.638;2023-07-30T09:47:44;9.10;;;2.00;;
17330;SDS011;8783;52.448;4.638;2023-07-30T09:50:14;9.95;;;2.17;;
17330;SDS011;8783;52.448;4.638;2023-07-30T09:52:41;7.20;;;1.83;;
17330;SDS011;8783;52.448;4.638;2023-07-30T09:55:10;7.03;;;1.77;;
17330;SDS011;8783;52.448;4.638;2023-07-30T09:57:43;7.10;;;1.67;;
17330;SDS011;8783;52.448;4.638;2023-07-30T10:00:09;7.68;;;1.70;;
17330;SDS011;8783;52.448;4.638;2023-07-30T10:02:39;7.18;;;1.83;;
17330;SDS011;8783;52.448;4.638;2023-07-30T10:05:10;9.20;;;2.10;;
17330;SDS011;8783;52.448;4.638;2023-07-30T10:07:58;6.53;;;2.20;;
17330;SDS011;8783;52.448;4.638;2023-07-30T10:10:27;9.27;;;2.38;;
17330;SDS011;8783;52.448;4.638;2023-07-30T10:12:55;7.20;;;2.55;;
17330;SDS011;8783;52.448;4.638;2023-07-30T10:15:24;11.10;;;2.47;;
17330;SDS011;8783;52.448;4.638;2023-07-30T10:17:53;9.60;;;2.50;;
17330;SDS011;8783;52.448;4.638;2023-07-30T10:20:27;10.10;;;2.92;;
17330;SDS011;8783;52.448;4.638;2023-07-30T10:22:55;8.88;;;2.63;;
17330;SDS011;8783;52.448;4.638;2023-07-30T10:25:28;8.82;;;2.28;;
17330;SDS011;8783;52.448;4.638;2023-07-30T10:30:56;11.10;;;2.83;;
17330;SDS011;8783;52.448;4.638;2023-07-30T10:33:23;8.93;;;2.25;;
17330;SDS011;8783;52.448;4.638;2023-07-30T10:35:53;9.45;;;2.58;;
17330;SDS011;8783;52.448;4.638;2023-07-30T10:38:27;9.25;;;2.45;;
17330;SDS011;8783;52.448;4.638;2023-07-30T10:41:05;11.20;;;2.38;;
17330;SDS011;8783;52.448;4.638;2023-07-30T10:43:33;7.60;;;2.10;;
17330;SDS011;8783;52.448;4.638;2023-07-30T10:46:15;11.38;;;2.30;;
17330;SDS011;8783;52.448;4.638;2023-07-30T10:48:45;8.38;;;2.13;;
17330;SDS011;8783;52.448;4.638;2023-07-30T10:51:13;8.63;;;2.10;;
17330;SDS011;8783;52.448;4.638;2023-07-30T10:53:44;9.90;;;2.75;;
17330;SDS011;8783;52.448;4.638;2023-07-30T10:56:13;10.93;;;2.72;;
17330;SDS011;8783;52.448;4.638;2023-07-30T10:58:48;8.70;;;2.40;;
17330;SDS011;8783;52.448;4.638;2023-07-30T11:01:18;8.07;;;2.03;;
17330;SDS011;8783;52.448;4.638;2023-07-30T11:03:47;9.18;;;2.05;;
17330;SDS011;8783;52.448;4.638;2023-07-30T11:06:20;9.38;;;2.30;;
17330;SDS011;8783;52.448;4.638;2023-07-30T11:08:49;10.60;;;2.33;;
17330;SDS011;8783;52.448;4.638;2023-07-30T11:11:18;7.63;;;2.17;;
17330;SDS011;8783;52.448;4.638;2023-07-30T11:13:44;7.25;;;2.10;;
17330;SDS011;8783;52.448;4.638;2023-07-30T11:16:13;9.55;;;2.30;;
17330;SDS011;8783;52.448;4.638;2023-07-30T11:18:45;7.35;;;1.83;;
17330;SDS011;8783;52.448;4.638;2023-07-30T11:21:16;10.80;;;2.33;;
17330;SDS011;8783;52.448;4.638;2023-07-30T11:23:46;9.82;;;2.03;;
17330;SDS011;8783;52.448;4.638;2023-07-30T11:26:17;8.32;;;2.05;;
17330;SDS011;8783;52.448;4.638;2023-07-30T11:28:44;9.57;;;2.03;;
17330;SDS011;8783;52.448;4.638;2023-07-30T11:31:14;5.60;;;1.52;;
17330;SDS011;8783;52.448;4.638;2023-07-30T11:33:43;9.30;;;1.98;;
17330;SDS011;8783;52.448;4.638;2023-07-30T11:36:14;8.13;;;1.88;;
17330;SDS011;8783;52.448;4.638;2023-07-30T11:38:47;6.53;;;1.77;;
17330;SDS011;8783;52.448;4.638;2023-07-30T11:41:19;8.35;;;2.30;;
17330;SDS011;8783;52.448;4.638;2023-07-30T11:43:46;9.48;;;2.00;;
17330;SDS011;8783;52.448;4.638;2023-07-30T11:46:16;7.53;;;1.80;;
17330;SDS011;8783;52.448;4.638;2023-07-30T11:48:44;6.47;;;1.83;;
17330;SDS011;8783;52.448;4.638;2023-07-30T11:53:50;8.55;;;1.92;;
17330;SDS011;8783;52.448;4.638;2023-07-30T11:56:20;10.13;;;1.92;;
17330;SDS011;8783;52.448;4.638;2023-07-30T11:58:56;7.75;;;2.00;;
17330;SDS011;8783;52.448;4.638;2023-07-30T12:01:35;6.90;;;1.70;;
17330;SDS011;8783;52.448;4.638;2023-07-30T12:04:02;7.07;;;1.77;;
17330;SDS011;8783;52.448;4.638;2023-07-30T12:06:42;8.15;;;2.22;;
17330;SDS011;8783;52.448;4.638;2023-07-30T12:09:34;9.50;;;2.00;;
17330;SDS011;8783;52.448;4.638;2023-07-30T12:12:00;12.18;;;1.92;;
17330;SDS011;8783;52.448;4.638;2023-07-30T12:15:12;7.75;;;1.67;;
17330;SDS011;8783;52.448;4.638;2023-07-30T12:17:15;9.07;;;2.22;;
17330;SDS011;8783;52.448;4.638;2023-07-30T12:19:41;8.10;;;2.15;;
17330;SDS011;8783;52.448;4.638;2023-07-30T12:22:07;9.10;;;1.95;;
17330;SDS011;8783;52.448;4.638;2023-07-30T12:24:35;9.38;;;1.70;;
17330;SDS011;8783;52.448;4.638;2023-07-30T12:27:01;10.32;;;1.88;;
17330;SDS011;8783;52.448;4.638;2023-07-30T12:29:27;7.43;;;1.80;;
17330;SDS011;8783;52.448;4.638;2023-07-30T12:31:52;7.60;;;1.73;;
17330;SDS011;8783;52.448;4.638;2023-07-30T12:34:19;7.75;;;1.80;;
17330;SDS011;8783;52.448;4.638;2023-07-30T12:36:47;8.25;;;1.95;;
17330;SDS011;8783;52.448;4.638;2023-07-30T12:39:13;7.20;;;1.80;;
17330;SDS011;8783;52.448;4.638;2023-07-30T12:41:39;6.90;;;1.73;;
17330;SDS011;8783;52.448;4.638;2023-07-30T12:44:10;7.75;;;2.00;;
17330;SDS011;8783;52.448;4.638;2023-07-30T12:46:39;9.75;;;1.83;;
17330;SDS011;8783;52.448;4.638;2023-07-30T12:49:05;7.93;;;1.90;;
17330;SDS011;8783;52.448;4.638;2023-07-30T12:51:31;9.60;;;1.80;;
17330;SDS011;8783;52.448;4.638;2023-07-30T12:53:59;8.90;;;1.73;;
17330;SDS011;8783;52.448;4.638;2023-07-30T12:56:28;7.07;;;1.52;;
17330;SDS011;8783;52.448;4.638;2023-07-30T12:58:53;10.13;;;1.80;;
17330;SDS011;8783;52.448;4.638;2023-07-30T13:01:19;9.15;;;1.85;;
17330;SDS011;8783;52.448;4.638;2023-07-30T13:03:48;7.00;;;1.98;;
17330;SDS011;8783;52.448;4.638;2023-07-30T13:06:15;8.80;;;2.00;;
17330;SDS011;8783;52.448;4.638;2023-07-30T13:08:41;7.03;;;1.70;;
17330;SDS011;8783;52.448;4.638;2023-07-30T13:11:06;6.15;;;1.70;;
17330;SDS011;8783;52.448;4.638;2023-07-30T13:13:32;8.23;;;2.25;;
17330;SDS011;8783;52.448;4.638;2023-07-30T13:15:58;11.00;;;1.92;;
17330;SDS011;8783;52.448;4.638;2023-07-30T13:18:26;8.35;;;1.85;;
17330;SDS011;8783;52.448;4.638;2023-07-30T13:20:52;7.78;;;1.73;;
17330;SDS011;8783;52.448;4.638;2023-07-30T13:23:18;8.57;;;2.00;;
17330;SDS011;8783;52.448;4.638;2023-07-30T13:25:46;8.48;;;1.83;;
17330;SDS011;8783;52.448;4.638;2023-07-30T13:28:12;7.57;;;1.65;;
17330;SDS011;8783;52.448;4.638;2023-07-30T13:30:38;7.93;;;1.67;;
17330;SDS011;8783;52.448;4.638;2023-07-30T13:33:04;6.82;;;1.83;;
17330;SDS011;8783;52.448;4.638;2023-07-30T13:35:30;6.57;;;1.80;;
17330;SDS011;8783;52.448;4.638;2023-07-30T13:37:55;5.68;;;1.40;;
17330;SDS011;8783;52.448;4.638;2023-07-30T13:40:21;10.40;;;2.20;;
17330;SDS011;8783;52.448;4.638;2023-07-30T13:42:47;8.40;;;1.70;;
17330;SDS011;8783;52.448;4.638;2023-07-30T13:45:15;7.78;;;1.85;;
17330;SDS011;8783;52.448;4.638;2023-07-30T13:47:41;7.40;;;1.73;;
17330;SDS011;8783;52.448;4.638;2023-07-30T13:50:07;7.70;;;1.90;;
17330;SDS011;8783;52.448;4.638;2023-07-30T13:52:35;6.63;;;1.63;;
17330;SDS011;8783;52.448;4.638;2023-07-30T13:55:01;12.63;;;2.08;;
17330;SDS011;8783;52.448;4.638;2023-07-30T13:57:27;6.95;;;1.60;;
17330;SDS011;8783;52.448;4.638;2023-07-30T13:59:53;6.05;;;1.55;;
17330;SDS011;8783;52.448;4.638;2023-07-30T14:02:18;8.13;;;1.90;;
17330;SDS011;8783;52.448;4.638;2023-07-30T14:04:47;7.05;;;1.95;;
17330;SDS011;8783;52.448;4.638;2023-07-30T14:07:13;9.05;;;2.20;;
17330;SDS011;8783;52.448;4.638;2023-07-30T14:09:39;9.23;;;2.22;;
17330;SDS011;8783;52.448;4.638;2023-07-30T14:12:09;10.38;;;2.17;;
17330;SDS011;8783;52.448;4.638;2023-07-30T14:14:35;10.10;;;2.35;;
17330;SDS011;8783;52.448;4.638;2023-07-30T14:17:04;13.80;;;2.20;;
17330;SDS011;8783;52.448;4.638;2023-07-30T14:19:32;9.85;;;1.95;;
17330;SDS011;8783;52.448;4.638;2023-07-30T14:21:58;9.23;;;2.20;;
17330;SDS011;8783;52.448;4.638;2023-07-30T14:24:26;11.52;;;2.15;;
17330;SDS011;8783;52.448;4.638;2023-07-30T14:26:55;8.05;;;2.03;;
17330;SDS011;8783;52.448;4.638;2023-07-30T14:29:20;10.65;;;3.03;;
17330;SDS011;8783;52.448;4.638;2023-07-30T14:31:46;11.02;;;2.40;;
17330;SDS011;8783;52.448;4.638;2023-07-30T14:34:12;10.63;;;2.63;;
17330;SDS011;8783;52.448;4.638;2023-07-30T14:36:40;12.52;;;2.80;;
17330;SDS011;8783;52.448;4.638;2023-07-30T14:39:06;7.35;;;2.40;;
17330;SDS011;8783;52.448;4.638;2023-07-30T14:41:35;12.05;;;2.60;;
17330;SDS011;8783;52.448;4.638;2023-07-30T14:44:00;10.93;;;2.30;;
17330;SDS011;8783;52.448;4.638;2023-07-30T14:46:26;11.38;;;2.70;;
17330;SDS011;8783;52.448;4.638;2023-07-30T14:48:54;14.68;;;2.60;;
17330;SDS011;8783;52.448;4.638;2023-07-30T14:51:20;13.63;;;3.00;;
17330;SDS011;8783;52.448;4.638;2023-07-30T14:53:45;10.90;;;2.90;;
17330;SDS011;8783;52.448;4.638;2023-07-30T14:56:11;14.60;;;3.15;;
17330;SDS011;8783;52.448;4.638;2023-07-30T14:58:41;11.13;;;2.55;;
17330;SDS011;8783;52.448;4.638;2023-07-30T15:01:09;12.55;;;3.10;;